createdAt,value
2018-03-16T00:00:39.519Z,99969.83
2018-03-16T00:03:07.214Z,99972.44
2018-03-16T00:05:34.967Z,99964.53
2018-03-16T00:08:02.743Z,99973.15
2018-03-16T00:10:30.565Z,99981.20
2018-03-16T00:12:58.402Z,99977.77
2018-03-16T00:15:26.259Z,99968.30
2018-03-16T00:17:53.816Z,99978.81
2018-03-16T00:20:21.595Z,99973.52
2018-03-16T00:22:49.192Z,99973.00
2018-03-16T00:25:16.761Z,99982.96
2018-03-16T00:27:44.399Z,99981.02
2018-03-16T00:30:11.956Z,99992.17
2018-03-16T00:32:39.958Z,99977.97
2018-03-16T00:35:08.036Z,99989.27
2018-03-16T00:37:35.883Z,99992.66
2018-03-16T00:40:04.004Z,99995.05
2018-03-16T00:42:32.052Z,99990.20
2018-03-16T00:44:59.821Z,99994.42
2018-03-16T00:47:27.420Z,100001.55
2018-03-16T00:49:55.306Z,100002.36
2018-03-16T00:52:23.418Z,99998.89
2018-03-16T00:54:51.284Z,99995.47
2018-03-16T00:57:18.868Z,99998.16
2018-03-16T00:59:46.489Z,100003.63
2018-03-16T01:02:14.075Z,100009.19
2018-03-16T01:04:41.670Z,100003.82
2018-03-16T01:07:09.326Z,100000.98
2018-03-16T01:09:37.355Z,99999.71
2018-03-16T01:12:04.975Z,100002.14
2018-03-16T01:14:33.012Z,100005.31
2018-03-16T01:17:00.575Z,100001.13
2018-03-16T01:19:28.226Z,100003.97
2018-03-16T01:21:56.064Z,100015.23
2018-03-16T01:24:23.722Z,100003.94
2018-03-16T01:26:51.555Z,100015.20
2018-03-16T01:29:19.266Z,100006.66
2018-03-16T01:31:46.875Z,100010.98
2018-03-16T01:34:14.563Z,100012.95
2018-03-16T01:36:42.444Z,100014.16
2018-03-16T01:39:09.998Z,100019.53
2018-03-16T01:41:37.852Z,100023.37
2018-03-16T01:44:05.624Z,100021.39
2018-03-16T01:46:33.274Z,100020.69
2018-03-16T01:49:01.315Z,100023.63
2018-03-16T01:51:29.189Z,100015.20
2018-03-16T01:53:56.817Z,100015.84
2018-03-16T01:56:24.930Z,100026.36
2018-03-16T01:58:52.673Z,100017.70
2018-03-16T02:01:20.485Z,100021.13
2018-03-16T02:03:48.193Z,100013.48
2018-03-16T02:06:15.866Z,100024.16
2018-03-16T02:08:43.610Z,100020.31
2018-03-16T02:11:11.230Z,100013.04
2018-03-16T02:13:38.928Z,100021.31
2018-03-16T02:16:06.529Z,100022.84
2018-03-16T02:18:34.331Z,100030.61
2018-03-16T02:21:02.032Z,100029.12
2018-03-16T02:23:29.693Z,100023.05
2018-03-16T02:25:57.340Z,100020.24
2018-03-16T02:30:51.978Z,100021.84
2018-03-16T02:33:19.619Z,100019.80
2018-03-16T02:35:47.237Z,100017.75
2018-03-16T02:38:15.016Z,100013.94
2018-03-16T02:40:42.648Z,100015.98
2018-03-16T02:43:10.311Z,100012.06
2018-03-16T02:45:38.033Z,100013.00
2018-03-16T02:48:05.646Z,100015.88
2018-03-16T02:50:33.418Z,100015.84
2018-03-16T02:53:01.919Z,100024.69
2018-03-16T02:55:30.320Z,100019.98
2018-03-16T02:57:58.472Z,100023.48
2018-03-16T03:00:26.357Z,100029.91
2018-03-16T03:02:54.211Z,100034.57
2018-03-16T03:05:22.018Z,100032.86
2018-03-16T03:07:49.650Z,100044.53
2018-03-16T03:10:17.257Z,100039.61
2018-03-16T03:15:12.162Z,100039.11
2018-03-16T03:17:39.789Z,100040.13
2018-03-16T03:20:07.353Z,100038.15
2018-03-16T03:22:35.064Z,100041.17
2018-03-16T03:25:02.642Z,100044.57
2018-03-16T03:27:30.303Z,100051.20
2018-03-16T03:29:57.978Z,100051.84
2018-03-16T03:32:25.566Z,100047.73
2018-03-16T03:34:53.227Z,100043.56
2018-03-16T03:37:20.819Z,100052.84
2018-03-16T03:39:48.405Z,100062.21
2018-03-16T03:42:16.185Z,100051.09
2018-03-16T03:44:43.862Z,100054.19
2018-03-16T03:47:11.513Z,100050.04
2018-03-16T03:49:39.298Z,100053.19
2018-03-16T03:52:07.269Z,100056.52
2018-03-16T03:54:34.928Z,100061.16
2018-03-16T03:57:02.558Z,100061.45
2018-03-16T03:59:30.143Z,100060.38
2018-03-16T04:01:57.723Z,100066.39
2018-03-16T04:04:25.384Z,100066.16
2018-03-16T04:06:53.026Z,100073.88
2018-03-16T04:09:20.900Z,100073.14
2018-03-16T04:11:48.478Z,100080.70
2018-03-16T04:14:16.429Z,100082.69
2018-03-16T04:16:44.091Z,100083.27
2018-03-16T04:19:11.750Z,100081.88
2018-03-16T04:21:39.397Z,100079.92
2018-03-16T04:24:06.975Z,100084.77
2018-03-16T04:26:34.619Z,100088.56
2018-03-16T04:29:02.308Z,100093.17
2018-03-16T04:31:29.889Z,100089.30
2018-03-16T04:33:57.559Z,100081.19
2018-03-16T04:36:25.209Z,100092.10
2018-03-16T04:38:53.109Z,100089.13
2018-03-16T04:41:21.126Z,100088.95
2018-03-16T04:43:48.737Z,100100.39
2018-03-16T04:46:16.302Z,100106.95
2018-03-16T04:48:44.610Z,100109.38
2018-03-16T04:51:12.201Z,100113.58
2018-03-16T04:53:39.796Z,100113.93
2018-03-16T04:56:07.423Z,100118.62
2018-03-16T04:58:35.113Z,100119.05
2018-03-16T05:01:02.706Z,100118.73
2018-03-16T05:03:30.305Z,100122.14
2018-03-16T05:05:58.021Z,100127.63
2018-03-16T05:08:25.713Z,100119.02
2018-03-16T05:10:53.510Z,100132.05
2018-03-16T05:13:21.231Z,100134.21
2018-03-16T05:15:48.843Z,100131.88
2018-03-16T05:18:16.437Z,100133.80
2018-03-16T05:20:44.044Z,100137.20
2018-03-16T05:23:11.657Z,100144.97
2018-03-16T05:25:39.227Z,100142.00
2018-03-16T05:28:06.863Z,100142.63
2018-03-16T05:30:34.543Z,100150.53
2018-03-16T05:33:02.180Z,100158.00
2018-03-16T05:35:29.782Z,100151.08
2018-03-16T05:37:57.511Z,100165.70
2018-03-16T05:40:25.185Z,100159.70
2018-03-16T05:42:52.784Z,100169.98
2018-03-16T05:45:20.574Z,100170.84
2018-03-16T05:47:48.367Z,100175.61
2018-03-16T05:50:15.969Z,100178.50
2018-03-16T05:52:43.623Z,100187.34
2018-03-16T05:55:11.301Z,100187.44
2018-03-16T05:57:38.921Z,100180.95
2018-03-16T06:00:06.760Z,100186.30
2018-03-16T06:02:34.709Z,100183.84
2018-03-16T06:05:02.295Z,100194.97
2018-03-16T06:07:29.886Z,100186.34
2018-03-16T06:09:57.924Z,100203.02
2018-03-16T06:12:25.583Z,100205.27
2018-03-16T06:14:53.233Z,100212.39
2018-03-16T06:17:20.852Z,100207.94
2018-03-16T06:19:48.850Z,100202.86
2018-03-16T06:22:16.512Z,100212.80
2018-03-16T06:24:44.374Z,100210.94
2018-03-16T06:27:11.943Z,100214.55
2018-03-16T06:29:42.476Z,100217.34
2018-03-16T06:32:10.146Z,100225.12
2018-03-16T06:34:37.707Z,100221.08
2018-03-16T06:37:05.368Z,100225.03
2018-03-16T06:39:33.027Z,100228.22
2018-03-16T06:42:01.499Z,100233.34
2018-03-16T06:44:29.160Z,100246.59
2018-03-16T06:46:56.989Z,100243.80
2018-03-16T06:49:24.826Z,100247.94
2018-03-16T06:51:59.403Z,100250.61
2018-03-16T06:54:27.225Z,100248.22
2018-03-16T06:56:54.865Z,100244.34
2018-03-16T06:59:22.608Z,100255.20
2018-03-16T07:01:50.300Z,100261.80
2018-03-16T07:04:17.961Z,100263.52
2018-03-16T07:06:45.618Z,100266.20
2018-03-16T07:09:13.573Z,100271.73
2018-03-16T07:11:58.773Z,100277.61
2018-03-16T07:14:26.591Z,100283.25
2018-03-16T07:16:54.221Z,100289.96
2018-03-16T07:19:21.887Z,100288.38
2018-03-16T07:21:49.479Z,100291.86
2018-03-16T07:24:17.424Z,100296.80
2018-03-16T07:26:45.020Z,100300.03
2018-03-16T07:29:12.641Z,100307.02
2018-03-16T07:31:40.291Z,100310.38
2018-03-16T07:34:08.049Z,100311.87
2018-03-16T07:36:35.635Z,100322.77
2018-03-16T07:39:03.358Z,100328.52
2018-03-16T07:41:31.159Z,100325.83
2018-03-16T07:43:59.279Z,100342.84
2018-03-16T07:46:27.120Z,100347.94
2018-03-16T07:48:55.378Z,100351.95
2018-03-16T07:51:24.064Z,100355.48
2018-03-16T07:53:51.747Z,100349.34
2018-03-16T07:56:19.515Z,100368.73
2018-03-16T07:58:47.547Z,100358.30
2018-03-16T08:01:15.321Z,100363.11
2018-03-16T08:03:43.082Z,100371.56
2018-03-16T08:06:10.809Z,100375.45
2018-03-16T08:08:38.657Z,100378.98
2018-03-16T08:11:06.266Z,100381.81
2018-03-16T08:13:34.019Z,100383.64
2018-03-16T08:16:01.804Z,100383.52
2018-03-16T08:18:30.036Z,100383.80
2018-03-16T08:20:57.689Z,100384.30
2018-03-16T08:23:28.862Z,100385.39
2018-03-16T08:25:56.534Z,100388.58
2018-03-16T08:28:24.887Z,100386.32
2018-03-16T08:30:52.509Z,100393.16
2018-03-16T08:33:20.513Z,100396.11
2018-03-16T08:35:48.236Z,100397.97
2018-03-16T08:38:16.055Z,100400.30
2018-03-16T08:40:43.666Z,100403.92
2018-03-16T08:43:11.305Z,100407.15
2018-03-16T08:45:39.038Z,100413.45
2018-03-16T08:48:06.625Z,100403.64
2018-03-16T08:50:34.448Z,100401.79
2018-03-16T08:53:02.079Z,100432.98
2018-03-16T08:55:29.724Z,100415.46
2018-03-16T08:57:58.655Z,100414.64
2018-03-16T09:00:26.562Z,100418.23
2018-03-16T09:02:54.504Z,100418.14
2018-03-16T09:05:22.217Z,100414.41
2018-03-16T09:07:50.326Z,100425.23
2018-03-16T09:10:17.966Z,100420.70
2018-03-16T09:12:46.062Z,100423.78
2018-03-16T09:15:13.804Z,100424.45
2018-03-16T09:17:41.512Z,100426.33
2018-03-16T09:20:12.831Z,100426.56
2018-03-16T09:22:41.742Z,100427.77
2018-03-16T09:25:09.710Z,100425.64
2018-03-16T09:27:37.917Z,100437.14
2018-03-16T09:30:05.505Z,100430.98
2018-03-16T09:32:33.186Z,100428.81
2018-03-16T09:35:01.119Z,100439.03
2018-03-16T09:37:28.784Z,100433.11
2018-03-16T09:39:56.410Z,100436.72
2018-03-16T09:42:24.092Z,100451.22
2018-03-16T09:44:51.721Z,100447.71
2018-03-16T09:47:19.410Z,100449.98
2018-03-16T09:49:47.080Z,100435.23
2018-03-16T09:52:14.670Z,100443.55
2018-03-16T09:54:54.070Z,100455.09
2018-03-16T09:57:21.710Z,100454.28
2018-03-16T09:59:49.539Z,100456.16
2018-03-16T10:02:17.186Z,100452.15
2018-03-16T10:04:45.119Z,100460.47
2018-03-16T10:07:13.084Z,100462.61
2018-03-16T10:09:40.698Z,100462.73
2018-03-16T10:12:08.280Z,100461.81
2018-03-16T10:14:35.926Z,100464.36
2018-03-16T10:17:03.500Z,100462.75
2018-03-16T10:19:31.174Z,100468.79
2018-03-16T10:21:58.786Z,100467.17
2018-03-16T10:24:26.821Z,100476.27
2018-03-16T10:26:54.777Z,100474.53
2018-03-16T10:29:22.409Z,100472.39
2018-03-16T10:31:50.140Z,100476.02
2018-03-16T10:34:18.937Z,100479.48
2018-03-16T10:36:47.008Z,100479.08
2018-03-16T10:39:14.841Z,100482.84
2018-03-16T10:41:42.863Z,100488.48
2018-03-16T10:44:10.572Z,100486.86
2018-03-16T10:46:38.177Z,100487.78
2018-03-16T10:49:06.199Z,100493.55
2018-03-16T10:54:06.931Z,100503.08
2018-03-16T10:56:34.607Z,100507.89
2018-03-16T10:59:02.210Z,100500.41
2018-03-16T11:01:35.377Z,100508.95
2018-03-16T11:04:03.262Z,100503.86
2018-03-16T11:06:34.755Z,100507.61
2018-03-16T11:09:02.348Z,100505.63
2018-03-16T11:11:30.060Z,100503.08
2018-03-16T11:13:57.637Z,100507.89
2018-03-16T11:16:25.234Z,100521.95
2018-03-16T11:18:53.307Z,100517.41
2018-03-16T11:21:20.909Z,100515.93
2018-03-16T11:23:48.546Z,100514.86
2018-03-16T11:26:16.287Z,100522.86
2018-03-16T11:28:43.921Z,100524.89
2018-03-16T11:31:12.981Z,100523.98
2018-03-16T11:33:40.844Z,100534.56
2018-03-16T11:36:14.403Z,100532.53
2018-03-16T11:38:43.064Z,100536.05
2018-03-16T11:41:14.054Z,100540.76
2018-03-16T11:43:42.945Z,100530.69
2018-03-16T11:46:11.348Z,100542.52
2018-03-16T11:48:40.473Z,100531.66
2018-03-16T11:51:11.090Z,100545.45
2018-03-16T11:53:39.968Z,100554.83
2018-03-16T11:56:22.139Z,100547.88
2018-03-16T11:58:50.761Z,100551.08
2018-03-16T12:01:19.186Z,100552.56
2018-03-16T12:03:55.494Z,100554.31
2018-03-16T12:06:40.440Z,100564.11
2018-03-16T12:09:18.500Z,100565.59
2018-03-16T12:11:48.107Z,100564.11
2018-03-16T12:14:16.257Z,100573.90
2018-03-16T12:16:43.964Z,100574.83
2018-03-16T12:19:12.608Z,100577.09
2018-03-16T12:21:43.426Z,100582.33
2018-03-16T12:24:11.119Z,100580.86
2018-03-16T12:26:38.725Z,100571.62
2018-03-16T12:29:06.369Z,100582.99
2018-03-16T12:31:34.136Z,100583.00
2018-03-16T12:34:01.816Z,100587.43
2018-03-16T12:36:29.452Z,100595.58
2018-03-16T12:38:57.136Z,100591.96
2018-03-16T12:41:24.966Z,100588.75
2018-03-16T12:43:52.732Z,100593.43
2018-03-16T12:46:20.434Z,100602.02
2018-03-16T12:48:48.070Z,100612.58
2018-03-16T12:51:15.738Z,100607.78
2018-03-16T12:53:43.404Z,100616.09
2018-03-16T12:56:11.420Z,100613.66
2018-03-16T12:58:39.168Z,100611.64
2018-03-16T13:01:06.798Z,100622.63
2018-03-16T13:03:34.470Z,100614.04
2018-03-16T13:06:02.167Z,100625.28
2018-03-16T13:08:29.800Z,100629.67
2018-03-16T13:10:57.601Z,100626.03
2018-03-16T13:13:25.562Z,100621.20
2018-03-16T13:15:53.572Z,100627.90
2018-03-16T13:18:21.220Z,100630.98
2018-03-16T13:20:48.945Z,100641.71
2018-03-16T13:23:16.629Z,100638.47
2018-03-16T13:25:44.216Z,100645.03
2018-03-16T13:28:11.812Z,100643.17
2018-03-16T13:30:39.495Z,100643.28
2018-03-16T13:33:07.169Z,100643.41
2018-03-16T13:35:34.756Z,100649.47
2018-03-16T13:38:02.472Z,100651.19
2018-03-16T13:40:30.128Z,100648.66
2018-03-16T13:42:57.798Z,100656.03
2018-03-16T13:45:25.594Z,100656.28
2018-03-16T13:47:53.216Z,100661.89
2018-03-16T13:50:20.840Z,100663.46
2018-03-16T13:52:48.672Z,100664.55
2018-03-16T13:55:16.346Z,100666.41
2018-03-16T13:57:44.259Z,100672.58
2018-03-16T14:00:12.167Z,100667.39
2018-03-16T14:02:39.877Z,100670.70
2018-03-16T14:05:07.886Z,100671.17
2018-03-16T14:07:35.551Z,100677.05
2018-03-16T14:10:03.184Z,100687.77
2018-03-16T14:12:31.000Z,100681.88
2018-03-16T14:14:58.761Z,100687.64
2018-03-16T14:17:26.497Z,100682.41
2018-03-16T14:19:54.219Z,100683.33
2018-03-16T14:22:21.935Z,100681.21
2018-03-16T14:24:49.574Z,100686.93
2018-03-16T14:27:17.269Z,100694.83
2018-03-16T14:29:44.870Z,100682.88
2018-03-16T14:32:12.439Z,100688.02
2018-03-16T14:34:40.112Z,100692.45
2018-03-16T14:37:07.719Z,100695.81
2018-03-16T14:39:35.456Z,100694.32
2018-03-16T14:42:03.084Z,100696.73
2018-03-16T14:44:30.882Z,100691.78
2018-03-16T14:46:58.502Z,100702.78
2018-03-16T14:49:26.233Z,100702.39
2018-03-16T14:51:53.881Z,100697.57
2018-03-16T14:54:21.505Z,100693.02
2018-03-16T14:56:49.106Z,100704.13
2018-03-16T14:59:16.992Z,100704.94
2018-03-16T15:01:44.775Z,100704.16
2018-03-16T15:04:12.388Z,100703.61
2018-03-16T15:06:40.034Z,100706.83
2018-03-16T15:09:07.806Z,100707.73
2018-03-16T15:11:35.485Z,100718.74
2018-03-16T15:14:03.127Z,100706.39
2018-03-16T15:16:30.778Z,100710.83
2018-03-16T15:18:58.409Z,100708.94
2018-03-16T15:21:26.114Z,100707.31
2018-03-16T15:23:53.801Z,100705.81
2018-03-16T15:26:21.438Z,100711.72
2018-03-16T15:28:49.084Z,100709.41
2018-03-16T15:31:16.787Z,100723.77
2018-03-16T15:33:44.635Z,100727.77
2018-03-16T15:36:12.640Z,100719.73
2018-03-16T15:38:40.333Z,100722.14
2018-03-16T15:41:08.263Z,100723.73
2018-03-16T15:43:35.985Z,100716.48
2018-03-16T15:46:03.718Z,100723.72
2018-03-16T15:48:31.323Z,100722.23
2018-03-16T15:50:59.196Z,100726.17
2018-03-16T15:53:26.827Z,100734.22
2018-03-16T15:55:54.496Z,100726.62
2018-03-16T15:58:22.180Z,100734.04
2018-03-16T16:00:49.773Z,100733.80
2018-03-16T16:03:17.398Z,100733.13
2018-03-16T16:05:45.133Z,100748.12
2018-03-16T16:08:12.732Z,100749.23
2018-03-16T16:10:40.434Z,100747.08
2018-03-16T16:13:08.096Z,100745.59
2018-03-16T16:15:35.813Z,100759.37
2018-03-16T16:18:03.548Z,100766.01
2018-03-16T16:20:31.138Z,100762.09
2018-03-16T16:22:58.855Z,100764.98
2018-03-16T16:25:26.514Z,100771.58
2018-03-16T16:27:54.160Z,100768.33
2018-03-16T16:30:22.157Z,100769.86
2018-03-16T16:32:49.953Z,100767.56
2018-03-16T16:35:17.719Z,100774.97
2018-03-16T16:37:45.297Z,100776.80
2018-03-16T16:40:13.650Z,100786.39
2018-03-16T16:42:41.286Z,100791.36
2018-03-16T16:45:08.876Z,100787.41
2018-03-16T16:47:36.541Z,100795.59
2018-03-16T16:50:04.133Z,100790.45
2018-03-16T16:52:31.821Z,100796.16
2018-03-16T16:54:59.578Z,100810.80
2018-03-16T16:57:27.162Z,100811.03
2018-03-16T16:59:54.996Z,100810.33
2018-03-16T17:02:22.738Z,100818.25
2018-03-16T17:04:50.402Z,100816.76
2018-03-16T17:07:18.047Z,100821.16
2018-03-16T17:09:45.754Z,100829.28
2018-03-16T17:12:13.525Z,100833.66
2018-03-16T17:14:41.202Z,100840.83
2018-03-16T17:17:08.764Z,100839.15
2018-03-16T17:19:37.201Z,100844.98
2018-03-16T17:22:05.491Z,100843.39
2018-03-16T17:24:34.164Z,100857.67
2018-03-16T17:27:02.398Z,100853.38
2018-03-16T17:29:30.715Z,100862.07
2018-03-16T17:31:59.088Z,100861.02
2018-03-16T17:34:27.526Z,100867.67
2018-03-16T17:36:55.723Z,100862.23
2018-03-16T17:39:24.184Z,100868.47
2018-03-16T17:41:52.224Z,100868.09
2018-03-16T17:44:20.228Z,100858.77
2018-03-16T17:46:47.873Z,100864.44
2018-03-16T17:49:15.546Z,100874.97
2018-03-16T17:51:43.309Z,100865.39
2018-03-16T17:54:12.796Z,100875.98
2018-03-16T17:56:41.983Z,100882.89
2018-03-16T17:59:10.126Z,100894.90
2018-03-16T18:01:38.506Z,100889.38
2018-03-16T18:04:06.526Z,100895.34
2018-03-16T18:06:34.614Z,100911.70
2018-03-16T18:09:02.490Z,100903.84
2018-03-16T18:11:30.175Z,100910.26
2018-03-16T18:13:57.800Z,100913.48
2018-03-16T18:16:25.582Z,100913.02
2018-03-16T18:18:53.204Z,100922.68
2018-03-16T18:21:21.328Z,100926.47
2018-03-16T18:23:49.124Z,100914.83
2018-03-16T18:26:16.826Z,100923.47
2018-03-16T18:28:44.463Z,100919.68
2018-03-16T18:31:12.424Z,100924.94
2018-03-16T18:33:41.565Z,100928.11
2018-03-16T18:36:10.660Z,100932.08
2018-03-16T18:38:38.400Z,100934.63
2018-03-16T18:41:06.075Z,100930.12
2018-03-16T18:43:33.923Z,100940.22
2018-03-16T18:46:01.601Z,100944.95
2018-03-16T18:48:29.188Z,100939.89
2018-03-16T18:50:56.801Z,100948.54
2018-03-16T18:53:25.156Z,100947.70
2018-03-16T18:55:52.746Z,100961.80
2018-03-16T18:58:20.319Z,100952.75
2018-03-16T19:00:48.458Z,100956.30
2018-03-16T19:03:16.072Z,100959.33
2018-03-16T19:05:43.726Z,100957.80
2018-03-16T19:08:11.323Z,100960.80
2018-03-16T19:10:38.999Z,100957.30
2018-03-16T19:13:06.663Z,100961.88
2018-03-16T19:15:34.311Z,100967.22
2018-03-16T19:18:02.296Z,100953.41
2018-03-16T19:20:29.943Z,100960.84
2018-03-16T19:22:57.533Z,100965.30
2018-03-16T19:25:25.392Z,100962.55
2018-03-16T19:27:53.040Z,100972.86
2018-03-16T19:30:20.703Z,100980.57
2018-03-16T19:32:48.321Z,100981.45
2018-03-16T19:35:15.953Z,100983.45
2018-03-16T19:37:44.193Z,100983.75
2018-03-16T19:40:12.019Z,100991.21
2018-03-16T19:42:40.241Z,100979.99
2018-03-16T19:45:07.822Z,100985.29
2018-03-16T19:47:35.417Z,100994.97
2018-03-16T19:50:03.035Z,100987.45
2018-03-16T19:52:30.720Z,100982.78
2018-03-16T19:54:58.732Z,100990.23
2018-03-16T19:57:26.665Z,101000.45
2018-03-16T19:59:54.268Z,101001.47
2018-03-16T20:02:21.860Z,101001.07
2018-03-16T20:04:49.580Z,101007.88
2018-03-16T20:07:17.206Z,101004.00
2018-03-16T20:09:45.181Z,101012.09
2018-03-16T20:12:13.099Z,101015.49
2018-03-16T20:14:41.019Z,101016.45
2018-03-16T20:17:08.700Z,101025.68
2018-03-16T20:19:36.537Z,101025.19
2018-03-16T20:22:04.338Z,101028.88
2018-03-16T20:24:32.046Z,101029.34
2018-03-16T20:26:59.660Z,101033.02
2018-03-16T20:29:27.238Z,101023.85
2018-03-16T20:31:56.585Z,101032.23
2018-03-16T20:34:24.189Z,101030.34
2018-03-16T20:36:51.907Z,101033.88
2018-03-16T20:39:19.660Z,101035.70
2018-03-16T20:41:48.317Z,101031.48
2018-03-16T20:44:16.219Z,101038.64
2018-03-16T20:46:43.947Z,101049.46
2018-03-16T20:49:11.551Z,101040.03
2018-03-16T20:51:56.001Z,101042.41
2018-03-16T20:54:23.893Z,101044.17
2018-03-16T20:56:51.583Z,101048.05
2018-03-16T20:59:19.574Z,101045.31
2018-03-16T21:01:47.239Z,101045.22
2018-03-16T21:04:14.870Z,101049.02
2018-03-16T21:06:42.481Z,101057.70
2018-03-16T21:09:10.125Z,101048.78
2018-03-16T21:11:37.747Z,101063.63
2018-03-16T21:14:05.776Z,101064.97
2018-03-16T21:16:33.510Z,101070.42
2018-03-16T21:19:01.197Z,101070.67
2018-03-16T21:21:28.788Z,101070.55
2018-03-16T21:23:59.768Z,101082.26
2018-03-16T21:29:07.721Z,101082.00
2018-03-16T21:31:35.406Z,101076.16
2018-03-16T21:34:03.190Z,101081.16
2018-03-16T21:36:30.902Z,101073.69
2018-03-16T21:38:58.601Z,101086.32
2018-03-16T21:41:26.257Z,101082.97
2018-03-16T21:43:53.934Z,101100.71
2018-03-16T21:46:21.569Z,101092.52
2018-03-16T21:48:49.425Z,101102.41
2018-03-16T21:51:17.377Z,101103.12
2018-03-16T21:53:45.446Z,101095.75
2018-03-16T21:56:13.080Z,101102.00
2018-03-16T21:58:44.916Z,101099.63
2018-03-16T22:04:10.468Z,101109.45
2018-03-16T22:06:42.262Z,101103.66
2018-03-16T22:09:10.170Z,101099.48
2018-03-16T22:11:38.189Z,101106.38
2018-03-16T22:14:10.328Z,101107.27
2018-03-16T22:16:38.759Z,101101.41
2018-03-16T22:19:06.913Z,101111.34
2018-03-16T22:21:35.360Z,101110.19
2018-03-16T22:24:03.428Z,101108.56
2018-03-16T22:26:31.601Z,101104.09
2018-03-16T22:29:01.618Z,101123.34
2018-03-16T22:31:29.931Z,101107.80
2018-03-16T22:33:58.350Z,101117.48
2018-03-16T22:36:27.201Z,101115.58
2018-03-16T22:38:54.968Z,101116.27
2018-03-16T22:41:22.600Z,101119.59
2018-03-16T22:43:51.118Z,101121.22
2018-03-16T22:46:19.964Z,101116.16
2018-03-16T22:48:47.784Z,101130.37
2018-03-16T22:51:15.810Z,101130.42
2018-03-16T22:53:43.979Z,101137.89
2018-03-16T22:56:12.119Z,101132.97
2018-03-16T22:58:40.426Z,101131.46
2018-03-16T23:01:08.647Z,101132.78
2018-03-16T23:03:36.985Z,101128.26
2018-03-16T23:06:05.262Z,101120.85
2018-03-16T23:08:33.512Z,101127.45
2018-03-16T23:11:01.765Z,101125.38
2018-03-16T23:13:29.783Z,101134.69
2018-03-16T23:15:57.833Z,101141.35
2018-03-16T23:18:25.883Z,101133.92
2018-03-16T23:20:54.232Z,101134.11
2018-03-16T23:23:22.136Z,101134.64
2018-03-16T23:25:50.460Z,101133.68
2018-03-16T23:28:18.449Z,101146.50
2018-03-16T23:30:46.805Z,101133.48
2018-03-16T23:33:14.957Z,101149.10
2018-03-16T23:35:43.139Z,101151.70
2018-03-16T23:38:11.653Z,101144.07
2018-03-16T23:40:39.640Z,101160.48
2018-03-16T23:43:07.864Z,101150.84
2018-03-16T23:45:36.542Z,101152.06
2018-03-16T23:48:04.591Z,101152.33
2018-03-16T23:50:32.849Z,101160.80
2018-03-16T23:53:00.632Z,101153.58
2018-03-16T23:55:28.867Z,101152.13
2018-03-16T23:57:57.127Z,101150.09
